Terminal Aerodrome Forecast
Issued by NWS

Home | Current Version | Previous Version | Text Only | Print | Product List | Glossary On
Versions: 1 2 3 4 5 6 7 8 9 10 11 12 13 14 15 16 17 18 19 20 21 22 23 24 25 26 27
237
FTUS41 KPBZ 232329
TAFFKL
TAF
KFKL 232329Z 2400/2424 26003KT P6SM BKN040
     FM240300 25003KT P6SM VCTS BKN040CB
      TEMPO 2403/2405 3SM -TSRA BKN040CB
     FM240600 25003KT 3SM BR BKN025
     FM240800 24004KT 2SM BR BKN008
     FM241300 26005KT P6SM SCT015
     FM241500 27007KT P6SM BKN035
      AMD LTD TO CLD VIS AND WIND=

USA.gov is the U.S. government's official web portal to all federal, state and local government web resources and services.